Página principal
METAR-TAF:

METAR-TAF

Aeroportos :

Rabat, Marrocos

latitude: 34-03N, longitude: 006-46W, altura: 84 m

Observação actual do tempo

O boletim foi feito há 16 minutos, às 22:00 UTC
Vento 2 kt com direcção variável
Temperatura 9°C
Humidade 87%
Pressão 1028 hPa
Visibilidade 10 km ou mais
sem nuvens abaixo de 1500 metros e sem cumulonimbus

METAR: GMME 142200Z VRB02KT CAVOK 09/07 Q1028 NOSIG

Hora: 22:16 (22:16 UTC)

Previsão

O boletim foi feito há 5 horas e 16 minutos, às 17:00 UTC
Previsão válida de 14 às 12 UTC a 15 às 18 UTC
Vento 6 kt de sudeste
Visibilidade: 8000 m
Probabilidade 30% :
Temporariamente
de 15 às 00 UTC a 15 às 06 UTC
Visibilidade: 4000 m
Nuvens dispersasa uma altura de 1000 ft
neblina
Tornando-se
de 15 às 10 UTC a 15 às 14 UTC
Vento 6 kt de nor-nordeste
Visibilidade 10 km ou mais
sem nuvens abaixo de 1500 metros e sem cumulonimbus

TAF: GMME 141700Z 1412/1518 14006KT 8000 NSC PROB30 TEMPO 1500/1506 4000 BR SCT010 BECMG 1510/1514 02006KT CAVOK

Observações e previsões do tempo de mais de 4000 aeroportos (mensagens METAR e TAF).

As estações disponíveis são os pontos amarelos e vermelhos sobre o mapa.

Mova o rato sobre o mapa para ver o nome da estação.

Depois clique no ponto para visualizar as observações e previsões meteorológicas.

Para alterar o mapa : clique nos botões verdes com uma cruz preta para aumentar o zoom; no botão verde com uma pitada de zoom; ou nas setas verdes para mapas adjacentes.


METAR-TAF: